CYBW/YBW METAR and TAF weather

Enter ICAO airport designator
Station Type Date Time Source
CYBW METAR 2022/12/04 06:00 UTC NOAA

CYBW 040600Z AUTO 31008KT 9SM CLR M10/M16 A2993 RMK PCPN 0.5MM PAST HR SLP203


Station Type Date Time Source
CYBW Decoded METAR 2022/12/04 06:00 UTC NOAA

Calgary / Springbank, Canada (CYBW) 51-06N 114-22W
Dec 04, 2022 - 01:00 AM EST / 2022.12.04 0600 UTC
Wind: from the NW (310 degrees) at 9 MPH (8 KT):0
Visibility: 9 mile(s):0
Sky conditions: clear
Temperature: 14 F (-10 C)
Windchill: 1 F (-17 C):1
Dew Point: 3 F (-16 C)
Relative Humidity: 61%
Pressure (altimeter): 29.93 in. Hg (1013 hPa)
ob: CYBW 040600Z AUTO 31008KT 9SM CLR M10/M16 A2993 RMK PCPN 0.5MM PAST HR SLP203
cycle: 6

Station Type Date Time Source
CYBW TAF 2022/12/03 18:00 UTC NOAA

TAF CYBW 031740Z 0318/0405 28012G22KT P6SM SKC
BECMG 0401/0403 28008KT
RMK FCST BASED ON AUTO OBS. NXT FCST BY 040000Z

Example: see airport list